sensor_id;sensor_type;location;lat;lon;timestamp;P1;durP1;ratioP1;P2;durP2;ratioP2
72856;SDS011;62742;52.136;4.500;2022-10-16T00:01:25;4.45;;;1.75;;
72856;SDS011;62742;52.136;4.500;2022-10-16T00:03:56;6.00;;;1.65;;
72856;SDS011;62742;52.136;4.500;2022-10-16T00:06:25;3.20;;;0.90;;
72856;SDS011;62742;52.136;4.500;2022-10-16T00:08:53;3.53;;;1.20;;
72856;SDS011;62742;52.136;4.500;2022-10-16T00:11:21;4.63;;;1.35;;
72856;SDS011;62742;52.136;4.500;2022-10-16T00:13:55;4.32;;;1.20;;
72856;SDS011;62742;52.136;4.500;2022-10-16T00:16:25;5.68;;;1.42;;
72856;SDS011;62742;52.136;4.500;2022-10-16T00:18:54;3.63;;;1.35;;
72856;SDS011;62742;52.136;4.500;2022-10-16T00:21:22;3.28;;;1.33;;
72856;SDS011;62742;52.136;4.500;2022-10-16T00:23:54;5.43;;;1.67;;
72856;SDS011;62742;52.136;4.500;2022-10-16T00:26:30;4.72;;;1.10;;
72856;SDS011;62742;52.136;4.500;2022-10-16T00:28:59;3.90;;;1.13;;
72856;SDS011;62742;52.136;4.500;2022-10-16T00:31:26;3.80;;;1.55;;
72856;SDS011;62742;52.136;4.500;2022-10-16T00:33:53;3.78;;;1.10;;
72856;SDS011;62742;52.136;4.500;2022-10-16T00:36:21;3.80;;;1.38;;
72856;SDS011;62742;52.136;4.500;2022-10-16T00:38:51;6.70;;;1.35;;
72856;SDS011;62742;52.136;4.500;2022-10-16T00:41:20;4.40;;;1.10;;
72856;SDS011;62742;52.136;4.500;2022-10-16T00:43:51;3.47;;;1.10;;
72856;SDS011;62742;52.136;4.500;2022-10-16T00:49:08;3.60;;;0.90;;
72856;SDS011;62742;52.136;4.500;2022-10-16T00:51:50;3.05;;;1.10;;
72856;SDS011;62742;52.136;4.500;2022-10-16T00:54:23;2.17;;;1.00;;
72856;SDS011;62742;52.136;4.500;2022-10-16T00:56:53;4.80;;;0.88;;
72856;SDS011;62742;52.136;4.500;2022-10-16T00:59:26;1.92;;;0.88;;
72856;SDS011;62742;52.136;4.500;2022-10-16T01:02:00;3.38;;;0.98;;
72856;SDS011;62742;52.136;4.500;2022-10-16T01:04:29;4.43;;;1.13;;
72856;SDS011;62742;52.136;4.500;2022-10-16T01:07:09;3.22;;;1.30;;
72856;SDS011;62742;52.136;4.500;2022-10-16T01:15:41;2.28;;;0.90;;
72856;SDS011;62742;52.136;4.500;2022-10-16T01:24:31;3.88;;;1.00;;
72856;SDS011;62742;52.136;4.500;2022-10-16T01:27:04;3.33;;;0.98;;
72856;SDS011;62742;52.136;4.500;2022-10-16T01:35:26;2.72;;;1.10;;
72856;SDS011;62742;52.136;4.500;2022-10-16T01:41:09;4.95;;;1.00;;
72856;SDS011;62742;52.136;4.500;2022-10-16T01:44:01;4.57;;;1.30;;
72856;SDS011;62742;52.136;4.500;2022-10-16T01:46:39;4.43;;;1.30;;
72856;SDS011;62742;52.136;4.500;2022-10-16T01:49:08;3.53;;;1.25;;
72856;SDS011;62742;52.136;4.500;2022-10-16T01:51:37;3.08;;;1.10;;
72856;SDS011;62742;52.136;4.500;2022-10-16T01:54:05;5.70;;;1.20;;
72856;SDS011;62742;52.136;4.500;2022-10-16T01:56:35;4.10;;;1.30;;
72856;SDS011;62742;52.136;4.500;2022-10-16T01:59:15;3.50;;;1.20;;
72856;SDS011;62742;52.136;4.500;2022-10-16T02:01:50;5.85;;;1.33;;
72856;SDS011;62742;52.136;4.500;2022-10-16T02:07:02;3.53;;;1.10;;
72856;SDS011;62742;52.136;4.500;2022-10-16T02:09:30;5.28;;;1.33;;
72856;SDS011;62742;52.136;4.500;2022-10-16T02:12:01;5.30;;;1.38;;
72856;SDS011;62742;52.136;4.500;2022-10-16T02:14:38;5.18;;;1.30;;
72856;SDS011;62742;52.136;4.500;2022-10-16T02:17:13;4.00;;;1.33;;
72856;SDS011;62742;52.136;4.500;2022-10-16T02:19:43;2.88;;;1.05;;
72856;SDS011;62742;52.136;4.500;2022-10-16T02:22:33;3.67;;;1.20;;
72856;SDS011;62742;52.136;4.500;2022-10-16T02:25:10;3.60;;;1.35;;
72856;SDS011;62742;52.136;4.500;2022-10-16T02:28:03;3.42;;;1.15;;
72856;SDS011;62742;52.136;4.500;2022-10-16T02:30:50;5.53;;;1.42;;
72856;SDS011;62742;52.136;4.500;2022-10-16T02:33:25;3.45;;;1.30;;
72856;SDS011;62742;52.136;4.500;2022-10-16T02:35:56;5.32;;;1.30;;
72856;SDS011;62742;52.136;4.500;2022-10-16T02:38:24;4.45;;;1.58;;
72856;SDS011;62742;52.136;4.500;2022-10-16T02:40:52;3.50;;;1.40;;
72856;SDS011;62742;52.136;4.500;2022-10-16T02:43:19;5.28;;;1.60;;
72856;SDS011;62742;52.136;4.500;2022-10-16T02:45:46;5.55;;;1.48;;
72856;SDS011;62742;52.136;4.500;2022-10-16T02:48:12;5.15;;;1.52;;
72856;SDS011;62742;52.136;4.500;2022-10-16T02:50:38;7.30;;;1.85;;
72856;SDS011;62742;52.136;4.500;2022-10-16T02:53:05;5.60;;;1.80;;
72856;SDS011;62742;52.136;4.500;2022-10-16T02:55:31;6.40;;;1.70;;
72856;SDS011;62742;52.136;4.500;2022-10-16T02:57:58;6.75;;;1.95;;
72856;SDS011;62742;52.136;4.500;2022-10-16T03:00:24;3.63;;;1.75;;
72856;SDS011;62742;52.136;4.500;2022-10-16T03:02:51;3.55;;;1.73;;
72856;SDS011;62742;52.136;4.500;2022-10-16T03:05:17;5.03;;;1.58;;
72856;SDS011;62742;52.136;4.500;2022-10-16T03:07:44;5.13;;;1.58;;
72856;SDS011;62742;52.136;4.500;2022-10-16T03:10:10;5.95;;;1.50;;
72856;SDS011;62742;52.136;4.500;2022-10-16T03:12:37;5.47;;;1.40;;
72856;SDS011;62742;52.136;4.500;2022-10-16T03:15:04;4.28;;;1.45;;
72856;SDS011;62742;52.136;4.500;2022-10-16T03:17:31;6.88;;;1.60;;
72856;SDS011;62742;52.136;4.500;2022-10-16T03:19:58;4.93;;;1.60;;
72856;SDS011;62742;52.136;4.500;2022-10-16T03:22:25;4.13;;;1.90;;
72856;SDS011;62742;52.136;4.500;2022-10-16T03:24:51;6.13;;;1.70;;
72856;SDS011;62742;52.136;4.500;2022-10-16T03:27:18;6.30;;;1.90;;
72856;SDS011;62742;52.136;4.500;2022-10-16T03:29:45;5.93;;;1.65;;
72856;SDS011;62742;52.136;4.500;2022-10-16T03:32:11;5.72;;;1.52;;
72856;SDS011;62742;52.136;4.500;2022-10-16T03:34:38;6.57;;;1.90;;
72856;SDS011;62742;52.136;4.500;2022-10-16T03:37:04;6.05;;;1.80;;
72856;SDS011;62742;52.136;4.500;2022-10-16T03:39:31;5.15;;;1.60;;
72856;SDS011;62742;52.136;4.500;2022-10-16T03:41:57;4.70;;;1.85;;
72856;SDS011;62742;52.136;4.500;2022-10-16T03:44:23;11.15;;;2.08;;
72856;SDS011;62742;52.136;4.500;2022-10-16T03:46:50;5.35;;;1.55;;
72856;SDS011;62742;52.136;4.500;2022-10-16T03:49:16;5.38;;;1.83;;
72856;SDS011;62742;52.136;4.500;2022-10-16T03:51:43;5.57;;;1.75;;
72856;SDS011;62742;52.136;4.500;2022-10-16T03:54:10;7.65;;;2.00;;
72856;SDS011;62742;52.136;4.500;2022-10-16T03:56:36;4.68;;;1.73;;
72856;SDS011;62742;52.136;4.500;2022-10-16T03:59:03;6.47;;;1.77;;
72856;SDS011;62742;52.136;4.500;2022-10-16T04:01:29;6.72;;;1.70;;
72856;SDS011;62742;52.136;4.500;2022-10-16T04:03:56;14.88;;;1.90;;
72856;SDS011;62742;52.136;4.500;2022-10-16T04:06:23;7.07;;;1.70;;
72856;SDS011;62742;52.136;4.500;2022-10-16T04:08:49;4.63;;;1.60;;
72856;SDS011;62742;52.136;4.500;2022-10-16T04:11:15;6.45;;;1.75;;
72856;SDS011;62742;52.136;4.500;2022-10-16T04:13:42;4.85;;;1.45;;
72856;SDS011;62742;52.136;4.500;2022-10-16T04:16:09;5.18;;;1.27;;
72856;SDS011;62742;52.136;4.500;2022-10-16T04:18:35;5.82;;;1.33;;
72856;SDS011;62742;52.136;4.500;2022-10-16T04:21:03;2.17;;;1.23;;
72856;SDS011;62742;52.136;4.500;2022-10-16T04:23:31;5.35;;;1.38;;
72856;SDS011;62742;52.136;4.500;2022-10-16T04:25:59;5.28;;;1.42;;
72856;SDS011;62742;52.136;4.500;2022-10-16T04:28:26;5.00;;;1.40;;
72856;SDS011;62742;52.136;4.500;2022-10-16T04:30:53;3.72;;;1.23;;
72856;SDS011;62742;52.136;4.500;2022-10-16T04:33:20;6.78;;;1.60;;
72856;SDS011;62742;52.136;4.500;2022-10-16T04:35:47;8.73;;;1.95;;
72856;SDS011;62742;52.136;4.500;2022-10-16T04:38:13;7.32;;;1.90;;
72856;SDS011;62742;52.136;4.500;2022-10-16T04:40:41;6.63;;;1.75;;
72856;SDS011;62742;52.136;4.500;2022-10-16T04:43:10;7.28;;;2.15;;
72856;SDS011;62742;52.136;4.500;2022-10-16T04:45:36;6.82;;;2.38;;
72856;SDS011;62742;52.136;4.500;2022-10-16T04:48:03;5.45;;;2.13;;
72856;SDS011;62742;52.136;4.500;2022-10-16T04:50:29;7.10;;;2.22;;
72856;SDS011;62742;52.136;4.500;2022-10-16T04:52:56;6.35;;;2.55;;
72856;SDS011;62742;52.136;4.500;2022-10-16T04:55:22;7.13;;;3.03;;
72856;SDS011;62742;52.136;4.500;2022-10-16T04:57:49;7.55;;;3.05;;
72856;SDS011;62742;52.136;4.500;2022-10-16T05:00:15;7.43;;;2.80;;
72856;SDS011;62742;52.136;4.500;2022-10-16T05:02:44;10.82;;;3.08;;
72856;SDS011;62742;52.136;4.500;2022-10-16T05:05:11;7.57;;;2.70;;
72856;SDS011;62742;52.136;4.500;2022-10-16T05:07:37;8.25;;;3.00;;
72856;SDS011;62742;52.136;4.500;2022-10-16T05:10:04;7.13;;;2.72;;
72856;SDS011;62742;52.136;4.500;2022-10-16T05:12:31;8.80;;;3.28;;
72856;SDS011;62742;52.136;4.500;2022-10-16T05:14:58;7.57;;;3.00;;
72856;SDS011;62742;52.136;4.500;2022-10-16T05:17:24;7.20;;;3.00;;
72856;SDS011;62742;52.136;4.500;2022-10-16T05:19:52;7.75;;;2.72;;
72856;SDS011;62742;52.136;4.500;2022-10-16T05:22:18;6.53;;;2.33;;
72856;SDS011;62742;52.136;4.500;2022-10-16T05:24:45;10.75;;;2.92;;
72856;SDS011;62742;52.136;4.500;2022-10-16T05:27:11;6.90;;;2.30;;
72856;SDS011;62742;52.136;4.500;2022-10-16T05:29:45;10.05;;;2.40;;
72856;SDS011;62742;52.136;4.500;2022-10-16T05:32:16;7.53;;;2.45;;
72856;SDS011;62742;52.136;4.500;2022-10-16T05:34:44;6.82;;;2.40;;
72856;SDS011;62742;52.136;4.500;2022-10-16T05:37:11;7.28;;;2.65;;
72856;SDS011;62742;52.136;4.500;2022-10-16T05:39:38;9.43;;;3.10;;
72856;SDS011;62742;52.136;4.500;2022-10-16T05:42:05;8.68;;;3.33;;
72856;SDS011;62742;52.136;4.500;2022-10-16T05:44:32;8.88;;;3.33;;
72856;SDS011;62742;52.136;4.500;2022-10-16T05:46:59;11.05;;;3.15;;
72856;SDS011;62742;52.136;4.500;2022-10-16T05:49:25;7.38;;;3.20;;
72856;SDS011;62742;52.136;4.500;2022-10-16T05:51:53;9.70;;;3.75;;
72856;SDS011;62742;52.136;4.500;2022-10-16T05:54:19;11.20;;;3.10;;
72856;SDS011;62742;52.136;4.500;2022-10-16T05:56:46;9.23;;;3.70;;
72856;SDS011;62742;52.136;4.500;2022-10-16T05:59:12;8.38;;;3.38;;
72856;SDS011;62742;52.136;4.500;2022-10-16T06:01:39;15.30;;;4.05;;
72856;SDS011;62742;52.136;4.500;2022-10-16T06:04:05;8.13;;;3.42;;
72856;SDS011;62742;52.136;4.500;2022-10-16T06:06:31;13.85;;;3.53;;
72856;SDS011;62742;52.136;4.500;2022-10-16T06:08:58;11.07;;;3.30;;
72856;SDS011;62742;52.136;4.500;2022-10-16T06:11:26;9.38;;;3.20;;
72856;SDS011;62742;52.136;4.500;2022-10-16T06:13:57;9.95;;;3.50;;
72856;SDS011;62742;52.136;4.500;2022-10-16T06:16:28;9.15;;;3.20;;
72856;SDS011;62742;52.136;4.500;2022-10-16T06:18:55;7.78;;;3.03;;
72856;SDS011;62742;52.136;4.500;2022-10-16T06:21:23;9.32;;;3.00;;
72856;SDS011;62742;52.136;4.500;2022-10-16T06:23:52;8.30;;;3.30;;
72856;SDS011;62742;52.136;4.500;2022-10-16T06:26:21;10.15;;;2.92;;
72856;SDS011;62742;52.136;4.500;2022-10-16T06:28:51;8.32;;;2.97;;
72856;SDS011;62742;52.136;4.500;2022-10-16T06:31:19;10.00;;;2.63;;
72856;SDS011;62742;52.136;4.500;2022-10-16T06:33:49;8.32;;;2.92;;
72856;SDS011;62742;52.136;4.500;2022-10-16T06:36:17;9.35;;;2.70;;
72856;SDS011;62742;52.136;4.500;2022-10-16T06:38:44;8.48;;;2.85;;
72856;SDS011;62742;52.136;4.500;2022-10-16T06:41:12;5.75;;;2.00;;
72856;SDS011;62742;52.136;4.500;2022-10-16T06:43:42;6.60;;;2.42;;
72856;SDS011;62742;52.136;4.500;2022-10-16T06:46:13;10.52;;;2.35;;
72856;SDS011;62742;52.136;4.500;2022-10-16T06:48:44;8.43;;;2.20;;
72856;SDS011;62742;52.136;4.500;2022-10-16T06:51:11;7.97;;;2.40;;
72856;SDS011;62742;52.136;4.500;2022-10-16T06:53:43;7.75;;;2.33;;
72856;SDS011;62742;52.136;4.500;2022-10-16T06:56:14;11.20;;;2.95;;
72856;SDS011;62742;52.136;4.500;2022-10-16T06:58:46;7.97;;;2.33;;
72856;SDS011;62742;52.136;4.500;2022-10-16T07:01:15;11.65;;;2.30;;
72856;SDS011;62742;52.136;4.500;2022-10-16T07:03:44;10.82;;;2.42;;
72856;SDS011;62742;52.136;4.500;2022-10-16T07:06:13;8.02;;;2.08;;
72856;SDS011;62742;52.136;4.500;2022-10-16T07:08:46;9.93;;;2.03;;
72856;SDS011;62742;52.136;4.500;2022-10-16T07:11:17;11.75;;;2.42;;
72856;SDS011;62742;52.136;4.500;2022-10-16T07:13:47;9.60;;;2.33;;
72856;SDS011;62742;52.136;4.500;2022-10-16T07:16:18;9.32;;;2.65;;
72856;SDS011;62742;52.136;4.500;2022-10-16T07:18:47;10.13;;;2.78;;
72856;SDS011;62742;52.136;4.500;2022-10-16T07:21:16;6.72;;;2.42;;
72856;SDS011;62742;52.136;4.500;2022-10-16T07:23:51;9.88;;;2.47;;
72856;SDS011;62742;52.136;4.500;2022-10-16T07:26:19;6.32;;;2.30;;
72856;SDS011;62742;52.136;4.500;2022-10-16T07:28:46;11.45;;;3.03;;
72856;SDS011;62742;52.136;4.500;2022-10-16T07:31:14;9.40;;;3.00;;
72856;SDS011;62742;52.136;4.500;2022-10-16T07:33:43;10.40;;;2.72;;
72856;SDS011;62742;52.136;4.500;2022-10-16T07:36:14;10.35;;;2.60;;
72856;SDS011;62742;52.136;4.500;2022-10-16T07:38:43;11.57;;;3.20;;
72856;SDS011;62742;52.136;4.500;2022-10-16T07:41:13;6.07;;;2.67;;
72856;SDS011;62742;52.136;4.500;2022-10-16T07:43:51;7.53;;;2.78;;
72856;SDS011;62742;52.136;4.500;2022-10-16T07:46:21;9.48;;;3.00;;
72856;SDS011;62742;52.136;4.500;2022-10-16T07:48:48;10.98;;;3.50;;
72856;SDS011;62742;52.136;4.500;2022-10-16T07:51:17;6.22;;;3.08;;
72856;SDS011;62742;52.136;4.500;2022-10-16T07:53:46;7.15;;;2.60;;
72856;SDS011;62742;52.136;4.500;2022-10-16T07:56:14;11.85;;;3.17;;
72856;SDS011;62742;52.136;4.500;2022-10-16T07:58:42;8.73;;;2.83;;
72856;SDS011;62742;52.136;4.500;2022-10-16T08:01:10;11.43;;;3.15;;
72856;SDS011;62742;52.136;4.500;2022-10-16T08:03:58;12.38;;;3.10;;
72856;SDS011;62742;52.136;4.500;2022-10-16T08:06:25;13.38;;;2.67;;
72856;SDS011;62742;52.136;4.500;2022-10-16T08:08:51;14.90;;;2.88;;
72856;SDS011;62742;52.136;4.500;2022-10-16T08:11:18;8.98;;;2.60;;
72856;SDS011;62742;52.136;4.500;2022-10-16T08:13:45;11.18;;;2.38;;
72856;SDS011;62742;52.136;4.500;2022-10-16T08:16:11;11.02;;;2.55;;
72856;SDS011;62742;52.136;4.500;2022-10-16T08:18:38;14.45;;;2.58;;
72856;SDS011;62742;52.136;4.500;2022-10-16T08:21:06;12.77;;;2.45;;
72856;SDS011;62742;52.136;4.500;2022-10-16T08:23:39;8.15;;;2.22;;
72856;SDS011;62742;52.136;4.500;2022-10-16T08:26:06;12.95;;;2.45;;
72856;SDS011;62742;52.136;4.500;2022-10-16T08:28:35;12.10;;;2.03;;
72856;SDS011;62742;52.136;4.500;2022-10-16T08:31:20;8.25;;;1.92;;
72856;SDS011;62742;52.136;4.500;2022-10-16T08:33:47;11.18;;;2.17;;
72856;SDS011;62742;52.136;4.500;2022-10-16T08:36:14;8.98;;;2.67;;
72856;SDS011;62742;52.136;4.500;2022-10-16T08:38:42;16.52;;;6.45;;
72856;SDS011;62742;52.136;4.500;2022-10-16T08:47:12;15.32;;;4.47;;
72856;SDS011;62742;52.136;4.500;2022-10-16T08:50:17;11.38;;;3.10;;
72856;SDS011;62742;52.136;4.500;2022-10-16T08:52:50;11.63;;;2.30;;
72856;SDS011;62742;52.136;4.500;2022-10-16T08:58:18;13.13;;;3.20;;
72856;SDS011;62742;52.136;4.500;2022-10-16T09:01:03;14.93;;;2.80;;
72856;SDS011;62742;52.136;4.500;2022-10-16T09:09:32;10.00;;;2.85;;
72856;SDS011;62742;52.136;4.500;2022-10-16T09:21:38;9.52;;;3.10;;
72856;SDS011;62742;52.136;4.500;2022-10-16T09:24:16;9.35;;;2.72;;
72856;SDS011;62742;52.136;4.500;2022-10-16T09:26:46;14.77;;;2.67;;
72856;SDS011;62742;52.136;4.500;2022-10-16T09:29:14;12.25;;;3.00;;
72856;SDS011;62742;52.136;4.500;2022-10-16T09:31:43;10.25;;;2.47;;
72856;SDS011;62742;52.136;4.500;2022-10-16T09:34:17;10.23;;;2.67;;
72856;SDS011;62742;52.136;4.500;2022-10-16T09:36:47;9.63;;;2.45;;
72856;SDS011;62742;52.136;4.500;2022-10-16T09:39:14;14.38;;;2.65;;
72856;SDS011;62742;52.136;4.500;2022-10-16T09:41:41;13.88;;;2.40;;
72856;SDS011;62742;52.136;4.500;2022-10-16T09:44:29;13.90;;;2.30;;
72856;SDS011;62742;52.136;4.500;2022-10-16T09:47:03;14.57;;;2.40;;
72856;SDS011;62742;52.136;4.500;2022-10-16T09:49:38;10.85;;;2.55;;
72856;SDS011;62742;52.136;4.500;2022-10-16T09:52:14;11.52;;;1.92;;
72856;SDS011;62742;52.136;4.500;2022-10-16T09:55:09;12.65;;;2.63;;
72856;SDS011;62742;52.136;4.500;2022-10-16T09:57:49;12.73;;;2.10;;
72856;SDS011;62742;52.136;4.500;2022-10-16T10:00:20;13.00;;;2.70;;
72856;SDS011;62742;52.136;4.500;2022-10-16T10:02:49;12.85;;;2.22;;
72856;SDS011;62742;52.136;4.500;2022-10-16T10:05:23;11.32;;;2.22;;
72856;SDS011;62742;52.136;4.500;2022-10-16T10:08:00;14.07;;;2.47;;
72856;SDS011;62742;52.136;4.500;2022-10-16T10:10:32;11.95;;;2.03;;
72856;SDS011;62742;52.136;4.500;2022-10-16T10:13:19;12.35;;;2.25;;
72856;SDS011;62742;52.136;4.500;2022-10-16T10:15:50;15.10;;;2.67;;
72856;SDS011;62742;52.136;4.500;2022-10-16T10:18:18;9.98;;;2.05;;
72856;SDS011;62742;52.136;4.500;2022-10-16T10:20:58;13.85;;;2.47;;
72856;SDS011;62742;52.136;4.500;2022-10-16T10:23:28;11.65;;;2.05;;
72856;SDS011;62742;52.136;4.500;2022-10-16T10:26:13;11.43;;;2.17;;
72856;SDS011;62742;52.136;4.500;2022-10-16T10:28:52;11.43;;;2.50;;
72856;SDS011;62742;52.136;4.500;2022-10-16T10:34:37;12.95;;;2.10;;
72856;SDS011;62742;52.136;4.500;2022-10-16T10:41:24;12.02;;;1.67;;
72856;SDS011;62742;52.136;4.500;2022-10-16T10:47:16;10.93;;;3.72;;
72856;SDS011;62742;52.136;4.500;2022-10-16T10:50:18;15.05;;;2.13;;
72856;SDS011;62742;52.136;4.500;2022-10-16T10:55:40;14.45;;;2.25;;
72856;SDS011;62742;52.136;4.500;2022-10-16T10:58:59;11.95;;;4.20;;
72856;SDS011;62742;52.136;4.500;2022-10-16T11:01:50;15.63;;;8.82;;
72856;SDS011;62742;52.136;4.500;2022-10-16T11:04:34;13.18;;;2.85;;
72856;SDS011;62742;52.136;4.500;2022-10-16T11:07:44;9.90;;;2.20;;
72856;SDS011;62742;52.136;4.500;2022-10-16T11:10:57;12.70;;;2.42;;
72856;SDS011;62742;52.136;4.500;2022-10-16T11:16:03;13.02;;;2.35;;
72856;SDS011;62742;52.136;4.500;2022-10-16T11:18:46;12.43;;;2.03;;
72856;SDS011;62742;52.136;4.500;2022-10-16T11:22:02;10.70;;;1.50;;
72856;SDS011;62742;52.136;4.500;2022-10-16T11:24:54;9.95;;;2.08;;
72856;SDS011;62742;52.136;4.500;2022-10-16T11:27:49;8.88;;;2.13;;
72856;SDS011;62742;52.136;4.500;2022-10-16T11:30:31;13.77;;;2.63;;
72856;SDS011;62742;52.136;4.500;2022-10-16T11:35:48;11.68;;;2.17;;
72856;SDS011;62742;52.136;4.500;2022-10-16T11:41:50;8.05;;;1.50;;
72856;SDS011;62742;52.136;4.500;2022-10-16T11:47:30;9.38;;;2.03;;
72856;SDS011;62742;52.136;4.500;2022-10-16T11:50:18;10.20;;;1.65;;
72856;SDS011;62742;52.136;4.500;2022-10-16T11:53:16;12.68;;;1.73;;
72856;SDS011;62742;52.136;4.500;2022-10-16T11:56:15;10.52;;;2.00;;
72856;SDS011;62742;52.136;4.500;2022-10-16T12:04:24;12.27;;;1.98;;
72856;SDS011;62742;52.136;4.500;2022-10-16T12:07:14;10.40;;;1.70;;
72856;SDS011;62742;52.136;4.500;2022-10-16T12:09:49;11.25;;;1.88;;
72856;SDS011;62742;52.136;4.500;2022-10-16T12:15:18;13.00;;;1.70;;
72856;SDS011;62742;52.136;4.500;2022-10-16T12:17:54;9.93;;;1.75;;
72856;SDS011;62742;52.136;4.500;2022-10-16T12:20:27;10.55;;;2.00;;
72856;SDS011;62742;52.136;4.500;2022-10-16T12:23:01;8.98;;;1.65;;
72856;SDS011;62742;52.136;4.500;2022-10-16T12:25:32;8.65;;;1.67;;
72856;SDS011;62742;52.136;4.500;2022-10-16T12:28:15;11.77;;;1.67;;
72856;SDS011;62742;52.136;4.500;2022-10-16T12:30:57;15.68;;;2.25;;
72856;SDS011;62742;52.136;4.500;2022-10-16T12:33:29;8.95;;;1.55;;
72856;SDS011;62742;52.136;4.500;2022-10-16T12:36:00;8.93;;;1.60;;
72856;SDS011;62742;52.136;4.500;2022-10-16T12:41:24;10.55;;;2.30;;
72856;SDS011;62742;52.136;4.500;2022-10-16T12:44:03;9.43;;;1.95;;
72856;SDS011;62742;52.136;4.500;2022-10-16T12:49:06;11.40;;;2.63;;
72856;SDS011;62742;52.136;4.500;2022-10-16T12:51:40;10.75;;;1.80;;
72856;SDS011;62742;52.136;4.500;2022-10-16T12:54:16;10.35;;;1.70;;
72856;SDS011;62742;52.136;4.500;2022-10-16T12:57:02;10.88;;;1.52;;
72856;SDS011;62742;52.136;4.500;2022-10-16T12:59:54;10.80;;;1.52;;
72856;SDS011;62742;52.136;4.500;2022-10-16T13:02:39;8.10;;;1.60;;
72856;SDS011;62742;52.136;4.500;2022-10-16T13:08:44;10.85;;;2.05;;
72856;SDS011;62742;52.136;4.500;2022-10-16T13:23:29;9.23;;;1.75;;
72856;SDS011;62742;52.136;4.500;2022-10-16T13:26:09;9.15;;;1.88;;
72856;SDS011;62742;52.136;4.500;2022-10-16T13:29:01;9.88;;;1.58;;
72856;SDS011;62742;52.136;4.500;2022-10-16T13:31:29;14.75;;;2.70;;
72856;SDS011;62742;52.136;4.500;2022-10-16T13:33:59;15.40;;;2.13;;
72856;SDS011;62742;52.136;4.500;2022-10-16T13:36:28;14.18;;;1.80;;
72856;SDS011;62742;52.136;4.500;2022-10-16T13:39:21;12.68;;;2.53;;
72856;SDS011;62742;52.136;4.500;2022-10-16T13:44:35;10.95;;;2.08;;
72856;SDS011;62742;52.136;4.500;2022-10-16T13:47:20;9.23;;;1.70;;
72856;SDS011;62742;52.136;4.500;2022-10-16T13:50:05;10.05;;;1.60;;
72856;SDS011;62742;52.136;4.500;2022-10-16T13:52:39;8.70;;;1.73;;
72856;SDS011;62742;52.136;4.500;2022-10-16T13:55:10;15.57;;;2.00;;
72856;SDS011;62742;52.136;4.500;2022-10-16T13:57:43;10.88;;;1.60;;
72856;SDS011;62742;52.136;4.500;2022-10-16T14:00:18;11.63;;;2.47;;
72856;SDS011;62742;52.136;4.500;2022-10-16T14:02:57;13.85;;;2.17;;
72856;SDS011;62742;52.136;4.500;2022-10-16T14:05:30;11.45;;;2.17;;
72856;SDS011;62742;52.136;4.500;2022-10-16T14:07:58;13.18;;;2.13;;
72856;SDS011;62742;52.136;4.500;2022-10-16T14:10:29;15.07;;;2.22;;
72856;SDS011;62742;52.136;4.500;2022-10-16T14:13:05;13.23;;;2.25;;
72856;SDS011;62742;52.136;4.500;2022-10-16T14:15:39;8.57;;;1.80;;
72856;SDS011;62742;52.136;4.500;2022-10-16T14:18:05;10.57;;;1.83;;
72856;SDS011;62742;52.136;4.500;2022-10-16T14:20:33;11.02;;;2.15;;
72856;SDS011;62742;52.136;4.500;2022-10-16T14:23:16;13.50;;;2.13;;
72856;SDS011;62742;52.136;4.500;2022-10-16T14:26:05;6.97;;;1.90;;
72856;SDS011;62742;52.136;4.500;2022-10-16T14:28:43;9.45;;;1.80;;
72856;SDS011;62742;52.136;4.500;2022-10-16T14:33:59;11.10;;;1.95;;
72856;SDS011;62742;52.136;4.500;2022-10-16T14:36:27;13.07;;;2.63;;
72856;SDS011;62742;52.136;4.500;2022-10-16T14:41:31;14.07;;;2.45;;
72856;SDS011;62742;52.136;4.500;2022-10-16T14:44:09;12.57;;;1.90;;
72856;SDS011;62742;52.136;4.500;2022-10-16T14:46:39;12.05;;;1.90;;
72856;SDS011;62742;52.136;4.500;2022-10-16T14:51:36;8.75;;;1.67;;
72856;SDS011;62742;52.136;4.500;2022-10-16T14:54:07;13.38;;;1.95;;
72856;SDS011;62742;52.136;4.500;2022-10-16T14:56:42;10.13;;;2.30;;
72856;SDS011;62742;52.136;4.500;2022-10-16T15:07:45;8.52;;;1.60;;
72856;SDS011;62742;52.136;4.500;2022-10-16T15:10:12;15.38;;;3.60;;
72856;SDS011;62742;52.136;4.500;2022-10-16T15:12:41;11.45;;;3.97;;
72856;SDS011;62742;52.136;4.500;2022-10-16T15:20:23;19.00;;;5.32;;
72856;SDS011;62742;52.136;4.500;2022-10-16T15:22:51;10.27;;;2.58;;
72856;SDS011;62742;52.136;4.500;2022-10-16T15:25:35;11.55;;;2.45;;
72856;SDS011;62742;52.136;4.500;2022-10-16T15:28:09;11.20;;;2.50;;
72856;SDS011;62742;52.136;4.500;2022-10-16T15:30:37;12.68;;;2.83;;
72856;SDS011;62742;52.136;4.500;2022-10-16T15:33:05;11.85;;;2.70;;
72856;SDS011;62742;52.136;4.500;2022-10-16T15:35:40;14.93;;;3.40;;
72856;SDS011;62742;52.136;4.500;2022-10-16T15:38:09;13.20;;;2.60;;
72856;SDS011;62742;52.136;4.500;2022-10-16T15:40:38;10.63;;;2.70;;
72856;SDS011;62742;52.136;4.500;2022-10-16T15:43:06;11.25;;;2.45;;
72856;SDS011;62742;52.136;4.500;2022-10-16T15:45:33;13.32;;;2.30;;
72856;SDS011;62742;52.136;4.500;2022-10-16T15:48:00;12.82;;;2.60;;
72856;SDS011;62742;52.136;4.500;2022-10-16T15:50:26;13.18;;;2.70;;
72856;SDS011;62742;52.136;4.500;2022-10-16T15:52:53;11.05;;;2.38;;
72856;SDS011;62742;52.136;4.500;2022-10-16T15:55:19;12.05;;;2.33;;
72856;SDS011;62742;52.136;4.500;2022-10-16T15:57:46;15.88;;;2.72;;
72856;SDS011;62742;52.136;4.500;2022-10-16T16:00:14;14.35;;;2.13;;
72856;SDS011;62742;52.136;4.500;2022-10-16T16:02:51;10.75;;;1.73;;
72856;SDS011;62742;52.136;4.500;2022-10-16T16:05:19;11.52;;;2.17;;
72856;SDS011;62742;52.136;4.500;2022-10-16T16:07:48;14.50;;;2.55;;
72856;SDS011;62742;52.136;4.500;2022-10-16T16:10:16;12.80;;;2.58;;
72856;SDS011;62742;52.136;4.500;2022-10-16T16:12:45;12.48;;;2.03;;
72856;SDS011;62742;52.136;4.500;2022-10-16T16:15:17;11.95;;;2.13;;
72856;SDS011;62742;52.136;4.500;2022-10-16T16:17:48;14.68;;;2.10;;
72856;SDS011;62742;52.136;4.500;2022-10-16T16:20:15;13.10;;;3.17;;
72856;SDS011;62742;52.136;4.500;2022-10-16T16:22:42;15.23;;;2.80;;
72856;SDS011;62742;52.136;4.500;2022-10-16T16:25:08;15.30;;;2.67;;
72856;SDS011;62742;52.136;4.500;2022-10-16T16:27:35;14.40;;;2.55;;
72856;SDS011;62742;52.136;4.500;2022-10-16T16:30:05;13.55;;;2.25;;
72856;SDS011;62742;52.136;4.500;2022-10-16T16:32:33;11.80;;;2.30;;
72856;SDS011;62742;52.136;4.500;2022-10-16T16:35:01;16.27;;;2.45;;
72856;SDS011;62742;52.136;4.500;2022-10-16T16:37:29;11.77;;;2.33;;
72856;SDS011;62742;52.136;4.500;2022-10-16T16:39:55;13.23;;;2.42;;
72856;SDS011;62742;52.136;4.500;2022-10-16T16:42:25;18.70;;;2.65;;
72856;SDS011;62742;52.136;4.500;2022-10-16T16:44:53;11.50;;;2.85;;
72856;SDS011;62742;52.136;4.500;2022-10-16T16:47:20;10.80;;;2.58;;
72856;SDS011;62742;52.136;4.500;2022-10-16T16:49:47;13.43;;;2.60;;
72856;SDS011;62742;52.136;4.500;2022-10-16T16:52:13;12.80;;;2.90;;
72856;SDS011;62742;52.136;4.500;2022-10-16T16:54:41;13.65;;;2.55;;
72856;SDS011;62742;52.136;4.500;2022-10-16T16:57:07;11.02;;;2.58;;
72856;SDS011;62742;52.136;4.500;2022-10-16T16:59:34;11.65;;;2.10;;
72856;SDS011;62742;52.136;4.500;2022-10-16T17:02:02;14.18;;;2.80;;
72856;SDS011;62742;52.136;4.500;2022-10-16T17:04:29;7.40;;;2.00;;
72856;SDS011;62742;52.136;4.500;2022-10-16T17:06:55;10.20;;;2.00;;
72856;SDS011;62742;52.136;4.500;2022-10-16T17:09:22;14.05;;;2.75;;
72856;SDS011;62742;52.136;4.500;2022-10-16T17:11:49;15.48;;;2.63;;
72856;SDS011;62742;52.136;4.500;2022-10-16T17:14:15;16.23;;;2.72;;
72856;SDS011;62742;52.136;4.500;2022-10-16T17:16:42;11.43;;;2.63;;
72856;SDS011;62742;52.136;4.500;2022-10-16T17:19:14;14.63;;;2.83;;